Time;durP1;ratioP1;P1;durP2;ratioP2;P2;SDS_P1;SDS_P2;PMS_P1;PMS_P2;Temp;Humidity;BMP_temperature;BMP_pressure;BME280_temperature;BME280_humidity;BME280_pressure;Samples;Min_cycle;Max_cycle;Signal;HPM_P1;HPM_P2
2022/05/04 00:00:47;;;;;;;14.18;6.43;;;11.50;99.90;;;;;;5046453;28;20075;-71
2022/05/04 00:03:12;;;;;;;11.30;5.20;;;11.50;99.90;;;;;;5045993;28;20028;-71
2022/05/04 00:05:38;;;;;;;10.00;5.65;;;11.50;99.90;;;;;;5047301;28;20381;-70
2022/05/04 00:08:05;;;;;;;13.88;6.15;;;11.50;99.90;;;;;;5049164;28;20021;-71
2022/05/04 00:10:31;;;;;;;15.52;6.82;;;11.40;99.90;;;;;;5049297;28;20501;-71
2022/05/04 00:12:58;;;;;;;13.10;5.80;;;11.40;99.90;;;;;;5049414;28;20067;-71
2022/05/04 00:15:25;;;;;;;13.68;6.85;;;11.40;99.90;;;;;;5049307;28;20044;-71
2022/05/04 00:17:51;;;;;;;15.88;7.00;;;11.40;99.90;;;;;;5048366;28;20025;-71
2022/05/04 00:20:17;;;;;;;14.98;7.55;;;11.30;99.90;;;;;;5046286;28;20028;-70
2022/05/04 00:22:43;;;;;;;18.35;6.85;;;11.30;99.90;;;;;;5044572;28;20037;-71
2022/05/04 00:25:10;;;;;;;17.40;7.88;;;11.30;99.90;;;;;;5034952;28;20026;-71
2022/05/04 00:27:37;;;;;;;15.95;7.70;;;11.30;99.90;;;;;;5048982;28;20074;-70
2022/05/04 00:30:04;;;;;;;15.45;7.68;;;11.30;99.90;;;;;;5048193;28;20029;-71
2022/05/04 00:32:30;;;;;;;16.33;8.93;;;11.30;99.90;;;;;;5046175;28;20122;-71
2022/05/04 00:34:56;;;;;;;20.92;8.98;;;11.30;99.90;;;;;;5046473;28;20059;-71
2022/05/04 00:37:21;;;;;;;15.77;8.05;;;11.20;99.90;;;;;;5051698;28;20045;-71
2022/05/04 00:39:47;;;;;;;16.85;8.27;;;11.30;99.90;;;;;;5053012;28;20115;-71
2022/05/04 00:42:18;;;;;;;18.27;8.27;;;11.20;99.90;;;;;;5052408;28;20090;-70
2022/05/04 00:44:46;;;;;;;17.60;8.13;;;11.20;99.90;;;;;;5052330;28;20512;-71
2022/05/04 00:47:12;;;;;;;20.15;9.20;;;11.20;99.90;;;;;;5052392;28;20045;-71
2022/05/04 00:49:40;;;;;;;21.27;9.27;;;11.20;99.90;;;;;;5052309;28;20028;-71
2022/05/04 00:52:06;;;;;;;18.88;8.07;;;11.20;99.90;;;;;;5052596;28;20040;-70
2022/05/04 00:54:34;;;;;;;18.50;8.18;;;11.10;99.90;;;;;;5052569;28;20029;-70
2022/05/04 00:57:01;;;;;;;19.95;7.82;;;11.20;99.90;;;;;;5051632;28;20037;-71
2022/05/04 00:59:29;;;;;;;19.48;7.68;;;11.20;99.90;;;;;;5052357;28;20518;-70
2022/05/04 01:01:56;;;;;;;17.50;8.02;;;11.20;99.90;;;;;;5051043;28;20025;-70
2022/05/04 01:04:21;;;;;;;19.05;8.65;;;11.20;99.90;;;;;;5049132;28;20037;-70
2022/05/04 01:06:47;;;;;;;23.40;8.68;;;11.20;99.90;;;;;;5049726;28;20083;-70
2022/05/04 01:09:14;;;;;;;21.17;9.25;;;11.20;99.90;;;;;;5052220;28;20025;-70
2022/05/04 01:11:40;;;;;;;23.58;9.80;;;11.20;99.90;;;;;;5052283;28;20094;-70
2022/05/04 01:14:09;;;;;;;24.30;11.05;;;11.20;99.90;;;;;;5052253;28;20100;-70
2022/05/04 01:16:37;;;;;;;14.55;7.93;;;11.20;99.90;;;;;;5052235;28;20110;-70
2022/05/04 01:19:03;;;;;;;21.38;10.43;;;11.20;99.90;;;;;;5051747;28;20831;-70
2022/05/04 01:21:29;;;;;;;18.60;9.13;;;11.20;99.90;;;;;;5051839;28;20033;-70
2022/05/04 01:23:56;;;;;;;20.48;10.45;;;11.20;99.90;;;;;;5052014;28;20029;-71
2022/05/04 01:26:22;;;;;;;18.20;10.25;;;11.20;99.90;;;;;;5051467;28;20071;-70
2022/05/04 01:28:47;;;;;;;22.73;10.32;;;11.20;99.90;;;;;;5051657;28;20052;-70
2022/05/04 01:31:13;;;;;;;23.80;9.75;;;11.20;99.90;;;;;;5052011;28;20029;-69
2022/05/04 01:33:39;;;;;;;21.52;11.10;;;11.10;99.90;;;;;;5051605;28;20029;-73
2022/05/04 01:36:06;;;;;;;19.70;8.82;;;11.10;99.90;;;;;;5051527;28;20128;-70
2022/05/04 01:38:32;;;;;;;17.10;9.32;;;11.10;99.90;;;;;;5051753;28;20029;-72
2022/05/04 01:40:58;;;;;;;21.05;10.55;;;11.10;99.90;;;;;;5051263;28;20029;-70
2022/05/04 01:43:23;;;;;;;22.80;10.52;;;11.10;99.90;;;;;;5051431;28;20049;-70
2022/05/04 01:45:50;;;;;;;19.10;9.13;;;11.00;99.90;;;;;;5050056;28;20456;-69
2022/05/04 01:48:16;;;;;;;21.60;9.82;;;11.00;99.90;;;;;;5049833;28;20059;-70
2022/05/04 01:50:41;;;;;;;17.27;9.95;;;10.90;99.90;;;;;;5047298;28;20447;-70
2022/05/04 01:53:08;;;;;;;24.25;10.68;;;10.90;99.90;;;;;;5048077;28;20367;-70
2022/05/04 01:55:34;;;;;;;23.23;10.80;;;10.90;99.90;;;;;;5047893;28;20086;-71
2022/05/04 01:58:04;;;;;;;22.90;10.23;;;10.90;99.90;;;;;;5047926;28;20033;-71
2022/05/04 02:00:30;;;;;;;26.73;11.18;;;10.90;99.90;;;;;;5048222;28;20024;-70
2022/05/04 02:02:58;;;;;;;23.63;10.48;;;10.90;99.90;;;;;;5048374;28;20353;-71
2022/05/04 02:05:23;;;;;;;26.35;11.98;;;10.90;99.90;;;;;;5048169;28;20107;-70
2022/05/04 02:07:49;;;;;;;17.52;8.80;;;10.90;99.90;;;;;;5047822;28;20407;-70
2022/05/04 02:10:16;;;;;;;20.73;9.77;;;10.90;99.90;;;;;;5049942;28;20035;-70
2022/05/04 02:12:42;;;;;;;18.17;9.07;;;10.80;99.90;;;;;;5050981;28;20024;-70
2022/05/04 02:15:10;;;;;;;23.85;11.27;;;10.90;99.90;;;;;;5050706;28;20021;-70
2022/05/04 02:17:36;;;;;;;23.63;11.07;;;10.90;99.90;;;;;;5050926;28;20048;-70
2022/05/04 02:20:02;;;;;;;22.95;10.55;;;10.90;99.90;;;;;;5050633;28;20037;-70
2022/05/04 02:22:28;;;;;;;23.17;10.65;;;11.00;99.90;;;;;;5050686;28;20704;-70
2022/05/04 02:24:53;;;;;;;20.35;10.35;;;10.90;99.90;;;;;;5050700;28;20021;-70
2022/05/04 02:27:19;;;;;;;25.17;11.30;;;11.00;99.90;;;;;;5050983;28;20028;-70
2022/05/04 02:29:44;;;;;;;21.30;10.75;;;11.00;99.90;;;;;;5044150;28;20063;-69
2022/05/04 02:32:10;;;;;;;24.33;10.40;;;11.00;99.90;;;;;;5030615;28;20082;-70
2022/05/04 02:37:54;;;;;;;22.42;11.65;;;11.00;99.90;;;;;;5030575;28;20087;-70
2022/05/04 02:40:10;;;;;;;33.25;14.65;;;10.90;99.90;;;;;;5030400;28;20032;-70
2022/05/04 02:42:36;;;;;;;25.50;13.00;;;10.80;99.90;;;;;;5030434;28;20051;-69
2022/05/04 02:45:04;;;;;;;27.55;13.40;;;10.80;99.90;;;;;;5030606;28;20045;-71
2022/05/04 02:47:30;;;;;;;32.45;15.15;;;10.80;99.90;;;;;;5030321;28;20026;-71
2022/05/04 02:49:55;;;;;;;24.30;11.60;;;10.70;99.90;;;;;;5030246;28;20155;-70
2022/05/04 02:52:21;;;;;;;25.10;13.65;;;10.70;99.90;;;;;;5030324;28;20078;-72
2022/05/04 02:54:47;;;;;;;26.73;12.68;;;10.70;99.90;;;;;;5042307;28;20100;-71
2022/05/04 02:57:12;;;;;;;23.83;12.85;;;10.60;99.90;;;;;;5050019;28;20402;-70
2022/05/04 02:59:38;;;;;;;24.85;11.75;;;10.70;99.90;;;;;;5049626;28;20032;-70
2022/05/04 03:04:47;;;;;;;33.25;13.65;;;10.70;99.90;;;;;;5050093;28;20266;-70
2022/05/04 03:07:13;;;;;;;23.67;13.00;;;10.60;99.90;;;;;;5049926;28;20477;-70
2022/05/04 03:09:39;;;;;;;25.08;12.63;;;10.60;99.90;;;;;;5050390;28;20017;-70
2022/05/04 03:12:05;;;;;;;32.17;14.35;;;10.60;99.90;;;;;;5049715;28;20032;-71
2022/05/04 03:14:30;;;;;;;27.75;14.02;;;10.60;99.90;;;;;;5049847;28;20108;-70
2022/05/04 03:16:56;;;;;;;31.73;14.85;;;10.50;99.90;;;;;;5049978;28;20180;-70
2022/05/04 03:19:23;;;;;;;30.00;15.18;;;10.50;99.90;;;;;;5049690;28;20665;-70
2022/05/04 03:21:50;;;;;;;31.17;16.48;;;10.50;99.90;;;;;;5049634;28;20054;-70
2022/05/04 03:24:16;;;;;;;29.23;13.73;;;10.50;99.90;;;;;;5049734;28;20017;-69
2022/05/04 03:26:42;;;;;;;30.05;13.95;;;10.50;99.90;;;;;;5048293;28;20025;-70
2022/05/04 03:29:08;;;;;;;31.88;15.57;;;10.50;99.90;;;;;;5049769;28;20032;-70
2022/05/04 03:31:33;;;;;;;31.50;15.70;;;10.50;99.90;;;;;;5049620;28;20044;-70
2022/05/04 03:33:59;;;;;;;33.28;15.85;;;10.40;99.90;;;;;;5049472;28;20563;-70
2022/05/04 03:36:28;;;;;;;29.50;14.68;;;10.40;99.90;;;;;;5049501;28;20041;-70
2022/05/04 03:38:53;;;;;;;28.17;14.23;;;10.50;99.90;;;;;;5049516;28;20033;-70
2022/05/04 03:41:20;;;;;;;32.70;14.80;;;10.50;99.90;;;;;;5049756;28;20036;-71
2022/05/04 03:43:46;;;;;;;33.08;15.82;;;10.50;99.90;;;;;;5049610;28;20124;-70
2022/05/04 03:46:19;;;;;;;28.55;14.95;;;10.50;99.90;;;;;;5049841;28;20124;-70
2022/05/04 03:48:47;;;;;;;27.58;13.73;;;10.50;99.90;;;;;;5049589;28;20116;-71
2022/05/04 03:51:19;;;;;;;31.15;14.98;;;10.50;99.90;;;;;;5049407;28;20025;-70
2022/05/04 03:53:45;;;;;;;28.38;14.35;;;10.60;99.90;;;;;;5049749;28;20029;-71
2022/05/04 03:56:11;;;;;;;28.33;14.57;;;10.60;99.90;;;;;;5049204;28;20141;-71
2022/05/04 03:58:37;;;;;;;26.05;14.05;;;10.60;99.90;;;;;;5049441;28;20471;-70
2022/05/04 04:01:04;;;;;;;23.92;11.57;;;10.60;99.90;;;;;;5049416;28;20091;-71
2022/05/04 04:03:29;;;;;;;23.40;11.93;;;10.60;99.90;;;;;;5049347;28;20482;-70
2022/05/04 04:05:55;;;;;;;26.83;12.95;;;10.60;99.90;;;;;;5049309;28;20158;-71
2022/05/04 04:08:21;;;;;;;21.40;11.23;;;10.60;99.90;;;;;;5049496;28;20033;-70
2022/05/04 04:10:47;;;;;;;28.98;12.82;;;10.60;99.90;;;;;;5050904;28;20109;-70
2022/05/04 04:13:13;;;;;;;22.63;12.52;;;10.60;99.90;;;;;;5053212;28;20104;-71
2022/05/04 04:15:39;;;;;;;26.17;12.85;;;10.60;99.90;;;;;;5052038;28;20510;-70
2022/05/04 04:18:04;;;;;;;23.63;11.32;;;10.60;99.90;;;;;;5049651;28;20108;-71
2022/05/04 04:23:14;;;;;;;24.48;12.20;;;10.70;99.90;;;;;;5052896;28;20090;-71
2022/05/04 04:25:40;;;;;;;25.85;13.68;;;10.70;99.90;;;;;;5052988;28;20025;-71
2022/05/04 04:28:05;;;;;;;28.02;12.85;;;10.70;99.90;;;;;;5052810;28;20025;-70
2022/05/04 04:30:32;;;;;;;29.05;13.98;;;10.70;99.90;;;;;;5052245;28;20444;-71
2022/05/04 04:32:57;;;;;;;30.08;13.68;;;10.70;99.90;;;;;;5050264;28;20029;-71
2022/05/04 04:35:23;;;;;;;31.92;14.85;;;10.60;99.90;;;;;;5043156;28;20075;-71
2022/05/04 04:37:49;;;;;;;27.73;13.98;;;10.60;99.90;;;;;;5031167;28;20029;-70
2022/05/04 04:40:14;;;;;;;33.63;15.43;;;10.60;99.90;;;;;;5033054;28;20604;-70
2022/05/04 04:42:40;;;;;;;28.38;14.02;;;10.60;99.90;;;;;;5032362;28;20445;-70
2022/05/04 04:45:06;;;;;;;32.40;14.38;;;10.70;99.90;;;;;;5032637;28;20061;-70
2022/05/04 04:47:32;;;;;;;33.05;15.30;;;10.60;99.90;;;;;;5032469;28;20370;-71
2022/05/04 04:49:57;;;;;;;35.45;15.82;;;10.60;99.90;;;;;;5032731;28;20504;-70
2022/05/04 04:52:26;;;;;;;32.30;14.48;;;10.60;99.90;;;;;;5032402;28;20486;-70
2022/05/04 04:54:52;;;;;;;33.90;15.63;;;10.60;99.90;;;;;;5035696;28;20021;-70
2022/05/04 04:57:18;;;;;;;29.30;13.30;;;10.60;99.90;;;;;;5052200;28;20075;-70
2022/05/04 04:59:43;;;;;;;30.08;13.60;;;10.60;99.90;;;;;;5051505;28;20022;-69
2022/05/04 05:02:10;;;;;;;33.22;14.23;;;10.60;99.90;;;;;;5049845;28;20057;-70
2022/05/04 05:04:35;;;;;;;32.78;14.52;;;10.60;99.90;;;;;;5049059;28;20039;-70
2022/05/04 05:07:01;;;;;;;28.15;13.40;;;10.70;99.90;;;;;;5049624;28;20037;-69
2022/05/04 05:09:26;;;;;;;31.63;14.30;;;10.70;99.90;;;;;;5052136;28;20060;-70
2022/05/04 05:11:52;;;;;;;29.58;13.00;;;10.70;99.90;;;;;;5051804;28;20037;-70
2022/05/04 05:17:02;;;;;;;30.50;13.60;;;10.70;99.90;;;;;;5051866;28;20032;-70
2022/05/04 05:19:28;;;;;;;33.30;13.38;;;10.70;99.90;;;;;;5051924;28;20112;-70
2022/05/04 05:21:54;;;;;;;26.35;12.25;;;10.70;99.90;;;;;;5051567;28;20104;-70
2022/05/04 05:24:19;;;;;;;28.48;12.80;;;10.70;99.90;;;;;;5052075;28;20108;-70
2022/05/04 05:26:45;;;;;;;27.50;14.23;;;10.80;99.90;;;;;;5049564;28;20029;-70
2022/05/04 05:29:10;;;;;;;28.33;13.40;;;10.80;99.90;;;;;;5048823;28;20361;-71
2022/05/04 05:31:36;;;;;;;32.97;14.45;;;10.80;99.90;;;;;;5050036;28;20096;-70
2022/05/04 05:34:01;;;;;;;35.42;15.80;;;10.90;99.90;;;;;;5051675;28;20036;-70
2022/05/04 05:36:27;;;;;;;30.63;13.05;;;10.80;99.90;;;;;;5050656;28;20044;-70
2022/05/04 05:38:53;;;;;;;32.88;14.05;;;10.90;99.90;;;;;;5048835;28;20017;-70
2022/05/04 05:41:19;;;;;;;28.30;14.45;;;10.90;99.90;;;;;;5048294;28;20048;-71
2022/05/04 05:43:44;;;;;;;23.30;12.95;;;10.90;99.90;;;;;;5051198;28;20078;-71
2022/05/04 05:46:10;;;;;;;30.80;14.50;;;11.00;99.90;;;;;;5050089;28;20041;-72
2022/05/04 05:48:36;;;;;;;31.38;14.85;;;11.10;99.90;;;;;;5048131;28;20039;-71
2022/05/04 05:51:05;;;;;;;30.88;15.35;;;11.10;99.90;;;;;;5048703;28;20504;-71
2022/05/04 05:53:31;;;;;;;32.47;13.02;;;11.20;99.90;;;;;;5048389;28;20033;-71
2022/05/04 05:55:57;;;;;;;30.55;14.13;;;11.20;99.90;;;;;;5047727;28;20055;-71
2022/05/04 05:58:23;;;;;;;29.25;14.30;;;11.20;99.90;;;;;;5048242;28;20029;-71
2022/05/04 06:00:52;;;;;;;28.60;14.18;;;11.30;99.90;;;;;;5047780;28;20037;-70
2022/05/04 06:03:18;;;;;;;30.20;15.80;;;11.30;99.90;;;;;;5047948;28;20017;-71
2022/05/04 06:05:44;;;;;;;31.98;14.70;;;11.40;99.90;;;;;;5047636;28;20028;-71
2022/05/04 06:08:10;;;;;;;25.70;12.75;;;11.40;99.90;;;;;;5050842;28;20092;-71
2022/05/04 06:10:37;;;;;;;30.15;14.73;;;11.50;99.90;;;;;;5050649;28;20390;-71
2022/05/04 06:13:03;;;;;;;31.30;14.77;;;11.50;99.90;;;;;;5050771;28;20037;-71
2022/05/04 06:15:29;;;;;;;30.45;14.68;;;11.60;99.90;;;;;;5050836;28;20447;-72
2022/05/04 06:17:55;;;;;;;30.42;14.40;;;11.70;99.90;;;;;;5051047;28;20037;-73
2022/05/04 06:20:22;;;;;;;32.70;14.60;;;11.60;99.90;;;;;;5050482;28;20464;-73
2022/05/04 06:22:49;;;;;;;30.83;14.25;;;11.70;99.90;;;;;;5051081;28;20028;-73
2022/05/04 06:25:15;;;;;;;27.75;12.63;;;11.80;99.90;;;;;;5050489;28;20385;-73
2022/05/04 06:27:40;;;;;;;27.08;13.30;;;11.80;99.90;;;;;;5047578;28;20474;-73
2022/05/04 06:35:36;;;;;;;25.08;13.13;;;11.90;99.90;;;;;;5030513;28;20056;-73
2022/05/04 06:38:02;;;;;;;29.00;13.30;;;11.90;99.90;;;;;;5030375;28;20037;-73
2022/05/04 06:40:27;;;;;;;26.33;13.23;;;12.00;99.90;;;;;;5028939;28;20493;-73
2022/05/04 06:42:53;;;;;;;30.45;13.45;;;12.00;99.90;;;;;;5030036;28;20100;-73
2022/05/04 06:45:19;;;;;;;32.65;13.15;;;12.00;99.90;;;;;;5030381;28;20083;-73
2022/05/04 06:47:44;;;;;;;26.42;13.88;;;12.00;99.90;;;;;;5030472;28;20087;-73
2022/05/04 06:50:10;;;;;;;25.05;11.15;;;12.10;99.90;;;;;;5029981;28;20096;-72
2022/05/04 06:52:37;;;;;;;22.42;12.30;;;12.10;99.90;;;;;;5026985;28;20044;-73
2022/05/04 06:55:04;;;;;;;27.42;13.00;;;12.20;99.90;;;;;;5031705;28;20029;-73
2022/05/04 06:57:30;;;;;;;23.27;13.07;;;12.20;99.90;;;;;;5047408;28;20115;-72
2022/05/04 06:59:58;;;;;;;20.25;9.00;;;12.20;99.90;;;;;;5049852;28;20063;-73
2022/05/04 07:02:23;;;;;;;21.00;9.77;;;12.20;99.90;;;;;;5044682;28;20071;-64
2022/05/04 07:04:49;;;;;;;18.10;9.43;;;12.30;99.90;;;;;;5036351;28;20021;-63
2022/05/04 07:07:15;;;;;;;19.35;9.23;;;12.30;99.90;;;;;;5033757;28;20509;-61
2022/05/04 07:09:40;;;;;;;20.42;10.13;;;12.20;99.90;;;;;;5048157;28;20016;-61
2022/05/04 07:12:07;;;;;;;22.27;9.60;;;12.20;99.90;;;;;;5049569;28;20394;-61
2022/05/04 07:14:32;;;;;;;21.38;8.82;;;12.20;99.90;;;;;;5049782;28;20099;-61
2022/05/04 07:16:58;;;;;;;18.42;8.02;;;12.10;99.90;;;;;;5049711;28;20124;-62
2022/05/04 07:19:24;;;;;;;15.52;7.72;;;12.10;99.90;;;;;;5049559;28;20036;-61
2022/05/04 07:21:49;;;;;;;18.33;8.38;;;12.10;99.90;;;;;;5049304;28;20444;-61
2022/05/04 07:24:15;;;;;;;18.38;8.77;;;12.20;99.90;;;;;;5049562;28;20048;-64
2022/05/04 07:26:41;;;;;;;14.77;8.13;;;12.30;99.90;;;;;;5040111;28;20029;-62
2022/05/04 07:29:07;;;;;;;17.67;8.68;;;12.30;99.90;;;;;;5037932;28;20112;-62
2022/05/04 07:31:33;;;;;;;21.45;8.65;;;12.40;99.90;;;;;;5029474;28;20115;-62
2022/05/04 07:33:59;;;;;;;17.85;8.38;;;12.40;99.90;;;;;;5029772;28;20054;-62
2022/05/04 07:36:24;;;;;;;18.48;8.25;;;12.50;99.90;;;;;;5029596;28;20108;-62
2022/05/04 07:38:50;;;;;;;17.42;8.75;;;12.60;99.90;;;;;;5029600;28;20586;-62
2022/05/04 07:44:00;;;;;;;16.65;8.43;;;12.80;99.90;;;;;;5029882;28;20398;-62
2022/05/04 07:46:27;;;;;;;18.05;8.73;;;12.80;99.90;;;;;;5033963;28;20033;-62
2022/05/04 07:48:54;;;;;;;24.45;9.45;;;12.90;99.90;;;;;;5033383;28;20025;-62
2022/05/04 07:51:20;;;;;;;21.60;8.95;;;13.10;99.90;;;;;;5033761;28;20037;-62
2022/05/04 07:53:45;;;;;;;17.35;8.23;;;13.20;99.90;;;;;;5032371;28;20395;-62
2022/05/04 07:56:11;;;;;;;14.88;8.32;;;13.20;99.90;;;;;;5047238;28;20032;-63
2022/05/04 07:58:36;;;;;;;18.08;8.50;;;13.40;99.90;;;;;;5053397;28;20398;-62
2022/05/04 08:06:30;;;;;;;16.98;8.70;;;13.40;99.90;;;;;;5053282;28;20086;-63
2022/05/04 08:08:56;;;;;;;16.73;8.10;;;13.40;99.90;;;;;;5053150;28;20111;-62
2022/05/04 08:11:22;;;;;;;15.93;8.15;;;13.30;99.90;;;;;;5052874;28;20090;-63
2022/05/04 08:13:47;;;;;;;14.50;8.00;;;13.30;99.90;;;;;;5052835;28;20386;-63
2022/05/04 08:16:13;;;;;;;15.82;7.90;;;13.30;99.90;;;;;;5051255;28;20040;-62
2022/05/04 08:18:40;;;;;;;14.93;8.05;;;13.30;99.90;;;;;;5052938;28;20032;-62
2022/05/04 08:21:07;;;;;;;17.80;8.55;;;13.30;99.90;;;;;;5052834;28;20033;-64
2022/05/04 08:23:33;;;;;;;15.48;7.78;;;13.50;99.90;;;;;;5051770;28;20036;-62
2022/05/04 08:25:59;;;;;;;20.35;8.07;;;13.60;99.90;;;;;;5049327;28;20405;-63
2022/05/04 08:28:24;;;;;;;18.60;8.90;;;13.60;99.90;;;;;;5050154;28;20040;-62
2022/05/04 08:30:50;;;;;;;16.40;7.97;;;13.60;99.90;;;;;;5053390;28;20075;-62
2022/05/04 08:33:16;;;;;;;20.65;9.20;;;13.70;99.90;;;;;;5052822;28;20032;-63
2022/05/04 08:35:41;;;;;;;17.83;8.75;;;13.80;99.90;;;;;;5036075;28;20099;-63
2022/05/04 08:38:07;;;;;;;20.73;9.23;;;13.90;99.90;;;;;;5033008;28;20060;-63
2022/05/04 08:40:33;;;;;;;18.52;8.55;;;14.10;99.90;;;;;;5032689;28;20037;-65
2022/05/04 08:43:05;;;;;;;17.60;9.30;;;14.30;99.90;;;;;;5032683;28;20068;-62
2022/05/04 08:45:35;;;;;;;19.02;9.65;;;14.40;99.90;;;;;;5035560;28;20056;-63
2022/05/04 08:48:02;;;;;;;22.50;10.95;;;14.40;99.90;;;;;;5049303;28;20028;-63
2022/05/04 08:50:28;;;;;;;21.92;10.27;;;14.50;99.90;;;;;;5051288;28;20064;-61
2022/05/04 08:52:54;;;;;;;25.80;11.70;;;14.80;99.90;;;;;;5052611;28;20063;-61
2022/05/04 08:55:21;;;;;;;28.20;11.10;;;15.10;99.90;;;;;;5052109;28;20036;-61
2022/05/04 08:57:47;;;;;;;23.38;11.43;;;15.30;99.90;;;;;;5051751;28;20033;-65
2022/05/04 09:00:14;;;;;;;21.35;9.35;;;15.70;99.90;;;;;;5051461;28;20033;-62
2022/05/04 09:02:40;;;;;;;20.45;9.57;;;16.10;99.90;;;;;;5048975;28;20104;-62
2022/05/04 09:05:20;;;;;;;28.25;12.90;;;16.40;99.90;;;;;;5045994;28;20692;-62
2022/05/04 09:07:48;;;;;;;22.77;11.32;;;16.30;99.90;;;;;;5051345;28;20078;-61
2022/05/04 09:10:22;;;;;;;19.80;9.40;;;16.50;99.90;;;;;;5052276;28;20026;-61
2022/05/04 09:12:49;;;;;;;23.95;9.73;;;16.60;99.90;;;;;;5051886;28;20047;-60
2022/05/04 09:15:17;;;;;;;21.73;10.23;;;17.20;99.90;;;;;;5052039;28;20378;-61
2022/05/04 09:17:43;;;;;;;20.27;10.23;;;17.90;99.90;;;;;;5052166;28;20064;-61
2022/05/04 09:22:53;;;;;;;22.80;11.13;;;19.00;97.60;;;;;;5048539;28;20058;-63
2022/05/04 09:25:19;;;;;;;19.35;10.40;;;19.90;96.60;;;;;;5050861;28;20025;-61
2022/05/04 09:27:48;;;;;;;22.48;11.07;;;20.40;93.70;;;;;;5045949;28;20028;-61
2022/05/04 09:30:15;;;;;;;19.08;9.90;;;21.00;93.40;;;;;;5050003;28;20037;-61
2022/05/04 09:32:41;;;;;;;21.70;10.35;;;21.10;92.10;;;;;;5050989;28;20021;-60
2022/05/04 09:35:13;;;;;;;21.60;10.10;;;20.90;91.80;;;;;;5051394;28;20029;-59
2022/05/04 09:45:55;;;;;;;21.80;10.68;;;23.10;87.50;;;;;;5035254;28;20528;-58
2022/05/04 09:48:34;;;;;;;22.35;11.27;;;21.70;87.60;;;;;;5029201;28;20021;-59
2022/05/04 09:51:05;;;;;;;21.35;10.00;;;21.30;91.20;;;;;;5027267;28;20052;-61
2022/05/04 09:53:32;;;;;;;18.00;10.13;;;21.30;89.50;;;;;;5028379;28;20018;-60
2022/05/04 09:55:58;;;;;;;25.75;12.15;;;20.20;91.50;;;;;;5043251;28;20036;-60
2022/05/04 09:58:28;;;;;;;14.95;9.00;;;19.70;93.10;;;;;;5050724;28;20032;-60
2022/05/04 10:00:55;;;;;;;22.00;11.77;;;19.90;94.00;;;;;;5051185;28;20036;-61
2022/05/04 10:03:21;;;;;;;19.85;10.88;;;19.60;94.20;;;;;;5050934;28;20025;-61
2022/05/04 10:05:48;;;;;;;21.95;10.45;;;19.60;93.50;;;;;;5050837;28;20044;-61
2022/05/04 10:08:14;;;;;;;57.90;15.50;;;19.60;94.00;;;;;;5049787;28;20044;-60
2022/05/04 10:10:41;;;;;;;22.17;10.90;;;20.00;93.40;;;;;;5051277;28;20036;-61
2022/05/04 10:13:08;;;;;;;17.25;9.90;;;19.50;93.30;;;;;;5050795;28;20021;-61
2022/05/04 10:15:37;;;;;;;22.33;10.18;;;19.30;94.70;;;;;;5050637;28;20044;-63
2022/05/04 10:18:04;;;;;;;21.80;10.90;;;18.60;95.20;;;;;;5050937;28;20037;-62
2022/05/04 10:20:39;;;;;;;19.10;10.45;;;18.90;96.80;;;;;;5050425;28;20497;-62
2022/05/04 10:23:09;;;;;;;19.38;10.60;;;18.60;97.40;;;;;;5051116;28;20074;-63
2022/05/04 10:25:35;;;;;;;17.75;9.73;;;18.70;97.70;;;;;;5048853;28;20019;-60
2022/05/04 10:28:14;;;;;;;21.30;10.73;;;18.40;97.40;;;;;;5047599;28;20029;-61
2022/05/04 10:30:55;;;;;;;21.95;10.57;;;18.80;98.30;;;;;;5047698;28;20047;-61
2022/05/04 10:33:34;;;;;;;18.73;11.00;;;18.70;97.10;;;;;;5047400;28;20108;-61
2022/05/04 10:36:27;;;;;;;22.40;10.88;;;19.10;96.20;;;;;;5049441;28;20037;-61
2022/05/04 10:38:57;;;;;;;22.08;11.23;;;19.70;96.00;;;;;;5050500;28;20075;-61
2022/05/04 10:41:41;;;;;;;20.80;10.77;;;20.80;93.00;;;;;;5050208;28;20043;-62
2022/05/04 10:44:11;;;;;;;19.80;10.68;;;22.30;91.50;;;;;;5038712;28;20537;-61
2022/05/04 10:46:41;;;;;;;19.43;10.83;;;21.50;88.00;;;;;;5030522;28;20489;-62
2022/05/04 10:49:10;;;;;;;22.15;11.15;;;22.50;88.70;;;;;;5030501;28;20467;-62
2022/05/04 10:51:39;;;;;;;24.58;12.40;;;22.00;87.60;;;;;;5030135;28;20095;-61
2022/05/04 10:54:12;;;;;;;21.73;12.50;;;21.30;88.50;;;;;;5030209;28;20121;-62
2022/05/04 10:56:49;;;;;;;21.80;11.93;;;20.80;90.50;;;;;;5047940;28;20043;-62
2022/05/04 10:59:32;;;;;;;19.77;11.65;;;20.70;92.10;;;;;;5048463;28;20055;-62
2022/05/04 11:02:05;;;;;;;21.70;11.32;;;20.60;92.10;;;;;;5045460;28;20071;-61
2022/05/04 11:04:35;;;;;;;17.83;10.27;;;20.40;92.30;;;;;;5050118;28;20021;-61
2022/05/04 11:07:02;;;;;;;23.65;12.63;;;21.30;91.10;;;;;;5049649;28;20056;-61
2022/05/04 11:09:42;;;;;;;19.30;10.88;;;21.70;88.40;;;;;;5049657;28;20037;-62
2022/05/04 11:12:10;;;;;;;18.17;10.57;;;21.80;88.90;;;;;;5049308;28;20059;-61
2022/05/04 11:14:37;;;;;;;19.58;10.57;;;22.30;86.60;;;;;;5046830;28;20029;-62
2022/05/04 11:17:12;;;;;;;17.50;9.88;;;21.60;87.60;;;;;;5045636;28;20051;-62
2022/05/04 11:19:43;;;;;;;19.40;11.32;;;21.60;88.70;;;;;;5046299;28;20017;-62
2022/05/04 11:22:10;;;;;;;20.52;10.30;;;21.40;89.60;;;;;;5046190;28;20037;-62
2022/05/04 11:24:37;;;;;;;22.30;11.85;;;20.70;91.00;;;;;;5046391;28;20119;-62
2022/05/04 11:27:04;;;;;;;22.50;11.68;;;20.60;91.40;;;;;;5046330;28;20041;-62
2022/05/04 11:29:30;;;;;;;18.98;9.55;;;20.40;92.30;;;;;;5046386;28;20079;-62
2022/05/04 11:31:57;;;;;;;19.10;10.98;;;20.40;91.90;;;;;;5046211;28;20100;-61
2022/05/04 11:34:28;;;;;;;23.60;11.80;;;20.10;91.70;;;;;;5046076;28;20367;-59
2022/05/04 11:37:01;;;;;;;19.98;11.00;;;19.90;93.40;;;;;;5046053;28;20124;-61
2022/05/04 11:39:29;;;;;;;22.73;11.40;;;19.30;93.60;;;;;;5046425;28;20096;-61
2022/05/04 11:41:57;;;;;;;24.48;12.70;;;18.70;95.30;;;;;;5045799;28;20029;-60
2022/05/04 11:44:24;;;;;;;24.27;12.18;;;18.20;97.40;;;;;;5046115;28;20506;-61
2022/05/04 11:46:55;;;;;;;20.27;10.88;;;17.90;98.30;;;;;;5046180;28;20041;-60
2022/05/04 11:49:23;;;;;;;25.10;12.60;;;17.70;99.90;;;;;;5046274;28;20021;-60
2022/05/04 11:51:50;;;;;;;22.85;12.35;;;17.90;99.90;;;;;;5045807;28;20025;-60
2022/05/04 11:54:16;;;;;;;24.20;12.35;;;17.80;99.90;;;;;;5046077;28;20100;-60
2022/05/04 11:56:42;;;;;;;23.20;12.00;;;18.20;99.90;;;;;;5045865;28;20029;-61
2022/05/04 11:59:08;;;;;;;23.33;12.25;;;18.10;99.80;;;;;;5046311;28;20025;-60
2022/05/04 12:01:38;;;;;;;20.75;11.57;;;18.20;99.10;;;;;;5046223;28;20389;-60
2022/05/04 12:04:05;;;;;;;24.42;12.88;;;18.20;99.90;;;;;;5046386;28;20025;-62
2022/05/04 12:06:32;;;;;;;23.30;11.95;;;18.10;99.80;;;;;;5045915;28;20025;-61
2022/05/04 12:08:59;;;;;;;22.48;11.05;;;17.60;99.90;;;;;;5045754;28;20029;-59
2022/05/04 12:11:25;;;;;;;23.42;11.88;;;17.50;99.90;;;;;;5046264;28;20040;-62
2022/05/04 12:13:52;;;;;;;24.58;11.73;;;17.40;99.90;;;;;;5048328;28;20021;-62
2022/05/04 12:16:18;;;;;;;23.17;11.80;;;17.40;99.90;;;;;;5049350;28;20033;-62
2022/05/04 12:18:44;;;;;;;26.27;12.02;;;17.50;99.90;;;;;;5049234;28;20033;-60
2022/05/04 12:21:16;;;;;;;22.55;12.65;;;17.60;99.90;;;;;;5048991;28;20524;-63
2022/05/04 12:23:47;;;;;;;23.98;12.23;;;17.70;99.90;;;;;;5049276;28;20473;-60
2022/05/04 12:26:14;;;;;;;22.63;11.18;;;17.20;99.90;;;;;;5049265;28;20028;-60
2022/05/04 12:33:08;;;;;;;19.52;10.82;;;17.40;99.90;;;;;;5049291;28;20021;-60
2022/05/04 12:34:15;;;;;;;24.67;12.90;;;17.30;99.90;;;;;;5053033;28;19912;-60
2022/05/04 12:36:44;;;;;;;21.23;11.23;;;16.90;99.90;;;;;;5052486;28;20041;-60
2022/05/04 12:39:10;;;;;;;24.90;11.07;;;17.00;99.90;;;;;;5052653;28;20021;-60
2022/05/04 12:41:35;;;;;;;20.27;10.25;;;16.90;99.90;;;;;;5051811;28;20112;-60
2022/05/04 12:44:04;;;;;;;24.00;12.60;;;16.90;99.90;;;;;;5039627;28;20463;-60
2022/05/04 12:46:29;;;;;;;21.60;10.65;;;16.80;99.90;;;;;;5032173;28;20104;-60
2022/05/04 12:48:56;;;;;;;22.13;11.57;;;16.90;99.90;;;;;;5032261;28;20189;-60
2022/05/04 12:51:24;;;;;;;20.38;11.27;;;17.40;99.90;;;;;;5032562;28;20017;-60
2022/05/04 12:53:51;;;;;;;20.58;10.85;;;17.30;99.90;;;;;;5032818;28;20026;-61
2022/05/04 12:59:01;;;;;;;20.85;11.00;;;17.50;99.90;;;;;;5052075;28;20086;-60
2022/05/04 13:01:30;;;;;;;24.05;11.25;;;17.50;99.90;;;;;;5052369;28;20109;-59
2022/05/04 13:03:59;;;;;;;24.42;11.52;;;17.40;99.90;;;;;;5052124;28;20427;-60
2022/05/04 13:06:25;;;;;;;24.45;12.55;;;17.00;99.90;;;;;;5051999;28;20611;-60
2022/05/04 13:08:52;;;;;;;23.70;12.15;;;17.00;99.90;;;;;;5052128;28;20083;-62
2022/05/04 13:11:19;;;;;;;25.67;11.35;;;16.60;99.90;;;;;;5052003;28;20547;-62